This is the latest recevied weather packets stored in our database for station/object VK5ALG-13. If no packets are shown the sender has not sent any weather packets the latest 10 day(s).
| Time | Temp. | Humidity | Pressure | Rain* | Wind** | Luminosity | Snow |
|---|---|---|---|---|---|---|---|
| 1777507822 | 24.44° C | 31% | 1023.2 hPa | 0 mm | - | - | - |
| 1777507218 | 24.44° C | 31% | 1023.3 hPa | 0 mm | - | - | - |
| 1777506674 | 23.89° C | 31% | 1023.3 hPa | 0 mm | - | - | - |
| 1777504823 | 23.33° C | 33% | 1023.3 hPa | 0 mm | - | - | - |
| 1777497644 | 22.22° C | 31% | 1022.3 hPa | 0 mm | - | - | - |
| 1777495830 | 22.22° C | 31% | 1022 hPa | 0 mm | - | - | - |
| 1777493436 | 22.78° C | 32% | 1021.8 hPa | 0 mm | - | - | - |
| 1777492230 | 22.22° C | 32% | 1021.7 hPa | 0 mm | - | - | - |
| 1777487421 | 22.22° C | 33% | 1021.5 hPa | 0 mm | - | - | - |
| 1777486817 | 22.22° C | 33% | 1021.6 hPa | 0 mm | - | - | - |
| 1777478428 | 22.22° C | 33% | 1022.5 hPa | 0 mm | - | - | - |
| 1777477221 | 22.22° C | 33% | 1022.6 hPa | 0 mm | - | - | - |
| 1777476618 | 22.78° C | 33% | 1022.6 hPa | 0 mm | - | - | - |
| 1777476035 | 22.78° C | 33% | 1022.7 hPa | 0 mm | - | - | - |
| 1777474224 | 22.78° C | 33% | 1022.9 hPa | 0 mm | - | - | - |
| 1777462838 | 21.67° C | 39% | 1023.4 hPa | 0 mm | - | - | - |
| 1777462240 | 21.67° C | 39% | 1023.4 hPa | 0 mm | - | - | - |
| 1777460423 | 21.67° C | 39% | 1023.4 hPa | 0 mm | - | - | - |
| 1777459236 | 21.11° C | 41% | 1023.3 hPa | 0 mm | - | - | - |
| 1777457425 | 21.67° C | 40% | 1023.2 hPa | 0 mm | - | - | - |
| 1777453825 | 22.22° C | 42% | 1023.3 hPa | 0 mm | - | - | - |
| 1777453221 | 21.67° C | 45% | 1023.2 hPa | 0 mm | - | - | - |
| 1777449620 | 23.89° C | 39% | 1022.7 hPa | 0 mm | - | - | - |
| 1777447225 | 26.11° C | 31% | 1022.3 hPa | 0 mm | - | - | - |
| 1777442437 | 27.22° C | 29% | 1022.4 hPa | 0 mm | - | - | - |
* Rain latest hour (hover to see other rain measurements)
** Current wind speed in m/s (hover to see current wind gust speed)